Kendallville, Indiana
Current Conditions -  °F | °C
As of 7:15 PM on Monday 20 Oct 2014 (Local Time) from KGWB Reporting Station
Overcast Overcast  
Wind Chill: 14°   Ceiling: 3600
Heat Index: 14°   Visibility: 10mi
Dew Point:   Wind: 7mph
Humidity: 67%   Direction: 320°NW
Pressure: 29.88"   Gusts: NA
Location:  41.44°N, 85.26°W
Report Text: KGWB 202315Z AUTO 32006KT 10SM SCT030 OVC036 14/08 A2988 RMK AO2
Loading
Personal Weather Stations






























Interactive Weather Map
Tropical Storm Tracking
New forecast layout! Learn more

10-Day Weather Forecast

Advertisements
Track Severe Weather on mobile